createdAt,value
2022-09-21T00:00:05.681Z,100.00
2022-09-21T00:02:46.423Z,100.00
2022-09-21T00:05:13.527Z,100.00
2022-09-21T00:07:40.612Z,100.00
2022-09-21T00:10:11.702Z,100.00
2022-09-21T00:12:41.795Z,100.00
2022-09-21T00:15:11.204Z,100.00
2022-09-21T00:17:38.395Z,100.00
2022-09-21T00:20:06.590Z,100.00
2022-09-21T00:22:34.336Z,100.00
2022-09-21T00:25:04.537Z,100.00
2022-09-21T00:27:32.081Z,100.00
2022-09-21T00:30:21.657Z,100.00
2022-09-21T00:38:43.942Z,100.00
2022-09-21T00:41:46.664Z,100.00
2022-09-21T00:44:33.825Z,100.00
2022-09-21T00:47:11.821Z,100.00
2022-09-21T00:50:01.664Z,100.00
2022-09-21T00:52:49.692Z,100.00
2022-09-21T00:55:22.782Z,100.00
2022-09-21T00:58:16.723Z,100.00
2022-09-21T01:00:59.551Z,100.00
2022-09-21T01:03:28.047Z,100.00
2022-09-21T01:05:56.536Z,100.00
2022-09-21T01:08:44.744Z,100.00
2022-09-21T01:11:53.064Z,100.00
2022-09-21T01:14:38.826Z,100.00
2022-09-21T01:17:24.724Z,100.00
2022-09-21T01:20:32.070Z,100.00
2022-09-21T01:23:22.263Z,100.00
2022-09-21T01:26:14.061Z,100.00
2022-09-21T01:28:41.799Z,100.00
2022-09-21T01:31:15.976Z,100.00
2022-09-21T01:34:01.858Z,100.00
2022-09-21T01:36:49.274Z,100.00
2022-09-21T01:39:32.704Z,100.00
2022-09-21T01:42:34.749Z,100.00
2022-09-21T01:45:40.343Z,100.00
2022-09-21T01:48:08.582Z,100.00
2022-09-21T01:50:59.762Z,100.00
2022-09-21T01:54:10.722Z,100.00
2022-09-21T01:57:07.655Z,100.00
2022-09-21T02:00:07.742Z,100.00
2022-09-21T02:03:12.467Z,100.00
2022-09-21T02:05:40.401Z,100.00
2022-09-21T02:08:10.357Z,100.00
2022-09-21T02:10:44.809Z,100.00
2022-09-21T02:13:15.009Z,100.00
2022-09-21T02:16:03.368Z,100.00
2022-09-21T02:19:03.272Z,100.00
2022-09-21T02:21:53.717Z,100.00
2022-09-21T02:24:46.637Z,100.00
2022-09-21T02:27:34.959Z,100.00
2022-09-21T02:30:16.202Z,100.00
2022-09-21T02:32:50.452Z,100.00
2022-09-21T02:35:58.802Z,100.00
2022-09-21T02:39:10.147Z,100.00
2022-09-21T02:41:45.709Z,100.00
2022-09-21T02:44:25.058Z,100.00
2022-09-21T02:46:58.953Z,100.00
2022-09-21T02:49:50.562Z,100.00
2022-09-21T02:52:54.714Z,100.00
2022-09-21T02:55:57.614Z,100.00
2022-09-21T02:58:46.765Z,100.00
2022-09-21T03:01:48.788Z,100.00
2022-09-21T03:04:29.335Z,100.00
2022-09-21T03:06:57.192Z,100.00
2022-09-21T03:09:24.689Z,100.00
2022-09-21T03:11:52.310Z,100.00
2022-09-21T03:14:19.563Z,100.00
2022-09-21T03:16:54.113Z,100.00
2022-09-21T03:19:26.352Z,100.00
2022-09-21T03:21:57.236Z,100.00
2022-09-21T03:24:42.652Z,100.00
2022-09-21T03:27:09.746Z,100.00
2022-09-21T03:29:36.689Z,100.00
2022-09-21T03:32:03.914Z,100.00
2022-09-21T03:34:50.782Z,100.00
2022-09-21T03:37:31.389Z,100.00
2022-09-21T03:39:59.358Z,100.00
2022-09-21T03:42:26.390Z,100.00
2022-09-21T03:44:53.502Z,100.00
2022-09-21T03:47:23.405Z,100.00
2022-09-21T03:50:11.223Z,100.00
2022-09-21T03:52:51.474Z,100.00
2022-09-21T03:55:18.529Z,100.00
2022-09-21T03:58:06.526Z,100.00
2022-09-21T04:01:06.856Z,100.00
2022-09-21T04:03:47.925Z,100.00
2022-09-21T04:06:15.946Z,100.00
2022-09-21T04:08:43.818Z,100.00
2022-09-21T04:11:17.184Z,100.00
2022-09-21T04:13:44.645Z,100.00
2022-09-21T04:16:11.691Z,100.00
2022-09-21T04:18:38.789Z,100.00
2022-09-21T04:21:06.259Z,100.00
2022-09-21T04:23:33.158Z,100.00
2022-09-21T04:26:00.110Z,100.00
2022-09-21T04:28:29.832Z,100.00
2022-09-21T04:30:59.874Z,100.00
2022-09-21T04:33:32.187Z,100.00
2022-09-21T04:36:36.673Z,100.00
2022-09-21T04:39:09.188Z,100.00
2022-09-21T04:41:36.232Z,100.00
2022-09-21T04:44:03.448Z,100.00
2022-09-21T04:46:30.801Z,100.00
2022-09-21T04:48:57.916Z,100.00
2022-09-21T04:51:45.815Z,100.00
2022-09-21T04:54:30.087Z,100.00
2022-09-21T04:57:17.001Z,100.00
2022-09-21T05:00:18.847Z,100.00
2022-09-21T05:04:06.024Z,100.00
2022-09-21T05:06:46.607Z,100.00
2022-09-21T05:09:35.408Z,100.00
2022-09-21T05:12:10.272Z,100.00
2022-09-21T05:15:02.907Z,100.00
2022-09-21T05:17:46.961Z,100.00
2022-09-21T05:20:14.070Z,100.00
2022-09-21T05:22:53.118Z,100.00
2022-09-21T05:25:22.816Z,100.00
2022-09-21T05:27:53.432Z,100.00
2022-09-21T05:30:23.964Z,100.00
2022-09-21T05:33:06.988Z,100.00
2022-09-21T05:36:20.134Z,100.00
2022-09-21T05:39:06.067Z,100.00
2022-09-21T05:41:37.882Z,100.00
2022-09-21T05:44:09.306Z,100.00
2022-09-21T05:47:17.654Z,100.00
2022-09-21T05:50:24.010Z,100.00
2022-09-21T05:53:32.912Z,100.00
2022-09-21T05:56:51.997Z,100.00
2022-09-21T06:00:08.313Z,100.00
2022-09-21T06:03:19.771Z,100.00
2022-09-21T06:06:14.549Z,100.00
2022-09-21T06:08:55.050Z,100.00
2022-09-21T06:11:22.147Z,100.00
2022-09-21T06:13:49.567Z,100.00
2022-09-21T06:16:17.443Z,100.00
2022-09-21T06:18:46.173Z,98.00
2022-09-21T06:21:15.032Z,93.53
2022-09-21T06:24:01.920Z,90.67
2022-09-21T06:27:34.920Z,90.13
2022-09-21T06:30:15.642Z,98.24
2022-09-21T06:32:45.827Z,98.84
2022-09-21T06:35:36.087Z,100.00
2022-09-21T06:38:19.592Z,100.00
2022-09-21T06:43:33.490Z,100.00
2022-09-21T06:46:12.393Z,100.00
2022-09-21T06:48:45.284Z,100.00
2022-09-21T06:51:12.875Z,100.00
2022-09-21T06:54:01.902Z,100.00
2022-09-21T06:57:02.932Z,100.00
2022-09-21T07:00:07.230Z,100.00
2022-09-21T07:02:48.596Z,100.00
2022-09-21T07:05:19.032Z,100.00
2022-09-21T07:07:54.610Z,100.00
2022-09-21T07:10:39.508Z,98.05
2022-09-21T07:13:30.087Z,95.25
2022-09-21T07:16:15.756Z,95.26
2022-09-21T07:18:48.595Z,91.10
2022-09-21T07:21:20.209Z,87.65
2022-09-21T07:24:17.730Z,96.19
2022-09-21T07:27:21.270Z,89.54
2022-09-21T07:30:08.342Z,86.98
2022-09-21T07:32:36.573Z,85.65
2022-09-21T07:35:26.770Z,91.96
2022-09-21T07:38:12.406Z,85.86
2022-09-21T07:40:44.680Z,86.12
2022-09-21T07:43:13.405Z,87.34
2022-09-21T07:45:42.912Z,88.33
2022-09-21T07:48:10.077Z,87.88
2022-09-21T07:51:01.160Z,92.20
2022-09-21T07:54:02.968Z,86.28
2022-09-21T07:57:05.384Z,86.94
2022-09-21T07:59:52.988Z,84.24
2022-09-21T08:02:34.122Z,81.75
2022-09-21T08:05:08.917Z,79.89
2022-09-21T08:07:36.640Z,78.76
2022-09-21T08:10:08.102Z,77.75
2022-09-21T08:12:35.707Z,77.76
2022-09-21T08:15:37.000Z,79.97
2022-09-21T08:18:04.934Z,79.48
2022-09-21T08:20:32.075Z,80.30
2022-09-21T08:23:19.054Z,81.91
2022-09-21T08:26:24.917Z,80.52
2022-09-21T08:29:08.697Z,78.66
2022-09-21T08:31:56.278Z,81.63
2022-09-21T08:34:57.549Z,80.69
2022-09-21T08:37:41.152Z,75.31
2022-09-21T08:40:19.577Z,72.58
2022-09-21T08:43:08.907Z,70.18
2022-09-21T08:45:43.113Z,69.96
2022-09-21T08:48:39.028Z,76.15
2022-09-21T08:51:31.782Z,77.88
2022-09-21T08:54:10.995Z,75.76
2022-09-21T08:57:01.050Z,75.88
2022-09-21T08:59:37.950Z,73.18
2022-09-21T09:03:07.092Z,73.79
2022-09-21T09:06:16.578Z,70.63
2022-09-21T09:09:15.048Z,69.02
2022-09-21T09:12:28.654Z,72.14
2022-09-21T09:15:18.939Z,71.91
2022-09-21T09:18:12.396Z,72.04
2022-09-21T09:20:48.034Z,71.06
2022-09-21T09:23:24.282Z,71.06
2022-09-21T09:26:17.358Z,71.77
2022-09-21T09:29:32.137Z,70.36
2022-09-21T09:32:15.545Z,67.74
2022-09-21T09:34:58.392Z,68.65
2022-09-21T09:37:34.041Z,66.19
2022-09-21T09:40:01.687Z,63.46
2022-09-21T09:43:17.055Z,64.37
2022-09-21T09:46:39.095Z,70.04
2022-09-21T09:49:37.262Z,62.55
2022-09-21T09:52:05.695Z,60.46
2022-09-21T09:54:35.697Z,61.01
2022-09-21T09:57:05.742Z,64.01
2022-09-21T10:00:06.961Z,61.36
2022-09-21T10:02:49.989Z,62.86
2022-09-21T10:05:45.043Z,64.63
2022-09-21T10:08:49.074Z,60.74
2022-09-21T10:11:17.532Z,57.36
2022-09-21T10:13:49.083Z,59.00
2022-09-21T10:16:21.191Z,61.09
2022-09-21T10:18:53.071Z,57.87
2022-09-21T10:21:27.430Z,55.27
2022-09-21T10:24:16.452Z,55.72
2022-09-21T10:27:04.680Z,54.15
2022-09-21T10:30:01.057Z,54.99
2022-09-21T10:32:57.005Z,51.72
2022-09-21T10:35:27.930Z,53.71
2022-09-21T10:38:21.785Z,53.32
2022-09-21T10:40:50.566Z,53.74
2022-09-21T10:43:34.759Z,52.86
2022-09-21T10:46:24.217Z,51.94
2022-09-21T10:49:51.379Z,54.08
2022-09-21T10:52:56.058Z,48.79
2022-09-21T10:55:52.653Z,52.28
2022-09-21T10:58:50.046Z,49.65
2022-09-21T11:01:31.714Z,49.62
2022-09-21T11:04:02.002Z,48.72
2022-09-21T11:06:38.252Z,48.40
2022-09-21T11:09:14.485Z,48.91
2022-09-21T11:12:17.155Z,49.99
2022-09-21T11:15:16.805Z,48.13
2022-09-21T11:18:23.080Z,48.02
2022-09-21T11:21:31.074Z,47.68
2022-09-21T11:24:45.014Z,48.84
2022-09-21T11:27:56.084Z,46.38
2022-09-21T11:30:58.514Z,46.16
2022-09-21T11:34:21.069Z,45.01
2022-09-21T11:37:21.335Z,45.08
2022-09-21T11:40:06.351Z,45.82
2022-09-21T11:45:31.239Z,45.49
2022-09-21T11:48:04.500Z,43.79
2022-09-21T11:50:40.040Z,49.07
2022-09-21T11:53:45.094Z,48.62
2022-09-21T11:56:59.148Z,48.75
2022-09-21T12:00:24.194Z,48.59
2022-09-21T12:03:54.032Z,49.13
2022-09-21T12:07:01.115Z,46.06
2022-09-21T12:10:30.677Z,44.51
2022-09-21T12:13:34.014Z,45.90
2022-09-21T12:16:51.190Z,48.69
2022-09-21T12:19:54.365Z,47.85
2022-09-21T12:22:56.179Z,47.36
2022-09-21T12:25:39.797Z,46.71
2022-09-21T12:28:16.793Z,46.54
2022-09-21T12:30:50.620Z,46.01
2022-09-21T12:33:26.350Z,44.51
2022-09-21T12:36:23.096Z,45.56
2022-09-21T12:39:13.739Z,45.46
2022-09-21T12:41:57.657Z,43.47
2022-09-21T12:44:52.399Z,45.44
2022-09-21T12:48:02.144Z,47.39
2022-09-21T12:51:09.201Z,46.92
2022-09-21T12:54:15.240Z,46.32
2022-09-21T12:57:58.725Z,47.10
2022-09-21T13:01:10.668Z,48.87
2022-09-21T13:04:08.639Z,50.37
2022-09-21T13:07:17.272Z,46.53
2022-09-21T13:09:58.659Z,47.11
2022-09-21T13:12:42.379Z,47.55
2022-09-21T13:15:26.153Z,46.16
2022-09-21T13:18:09.763Z,46.71
2022-09-21T13:20:40.169Z,45.98
2022-09-21T13:23:19.520Z,45.41
2022-09-21T13:25:50.161Z,46.01
2022-09-21T13:29:08.073Z,45.05
2022-09-21T13:32:02.030Z,45.17
2022-09-21T13:34:51.069Z,45.46
2022-09-21T13:37:31.922Z,45.67
2022-09-21T13:40:22.161Z,47.67
2022-09-21T13:43:21.177Z,46.00
2022-09-21T13:45:54.973Z,46.36
2022-09-21T13:48:42.102Z,43.89
2022-09-21T13:51:47.107Z,43.86
2022-09-21T13:54:35.584Z,45.92
2022-09-21T13:58:14.246Z,48.27
2022-09-21T14:01:42.547Z,46.25
2022-09-21T14:04:26.938Z,45.22
2022-09-21T14:06:55.960Z,46.41
2022-09-21T14:09:25.868Z,46.38
2022-09-21T14:11:58.180Z,46.32
2022-09-21T14:14:32.832Z,46.58
2022-09-21T14:17:01.438Z,45.56
2022-09-21T14:19:30.519Z,44.39
2022-09-21T14:22:03.653Z,43.86
2022-09-21T14:24:41.655Z,45.00
2022-09-21T14:27:27.335Z,47.28
2022-09-21T14:30:18.133Z,44.71
2022-09-21T14:33:24.105Z,44.07
2022-09-21T14:36:08.789Z,43.86
2022-09-21T14:38:43.363Z,44.76
2022-09-21T14:41:34.215Z,45.96
2022-09-21T14:44:20.632Z,46.89
2022-09-21T14:47:15.419Z,47.87
2022-09-21T14:49:51.509Z,48.33
2022-09-21T14:52:38.182Z,49.12
2022-09-21T14:55:49.927Z,50.29
2022-09-21T14:59:28.140Z,49.66
2022-09-21T15:02:37.170Z,52.07
2022-09-21T15:05:51.146Z,52.32
2022-09-21T15:09:30.170Z,54.41
2022-09-21T15:12:28.850Z,52.30
2022-09-21T15:15:05.213Z,52.87
2022-09-21T15:18:06.208Z,52.84
2022-09-21T15:21:12.261Z,52.81
2022-09-21T15:23:53.880Z,52.93
2022-09-21T15:26:26.756Z,52.54
2022-09-21T15:29:09.371Z,52.40
2022-09-21T15:31:57.232Z,53.91
2022-09-21T15:34:37.967Z,50.71
2022-09-21T15:37:17.312Z,51.39
2022-09-21T15:40:13.331Z,51.88
2022-09-21T15:43:01.623Z,51.69
2022-09-21T15:45:34.469Z,50.06
2022-09-21T15:48:02.520Z,50.27
2022-09-21T15:50:30.500Z,50.94
2022-09-21T15:53:03.431Z,52.80
2022-09-21T15:56:04.196Z,53.09
2022-09-21T15:59:03.163Z,53.66
2022-09-21T16:01:47.690Z,54.04
2022-09-21T16:04:40.185Z,53.42
2022-09-21T16:07:49.187Z,53.95
2022-09-21T16:10:29.637Z,54.81
2022-09-21T16:13:37.923Z,55.65
2022-09-21T16:16:11.118Z,54.64
2022-09-21T16:19:09.187Z,54.26
2022-09-21T16:21:49.940Z,54.90
2022-09-21T16:24:20.082Z,53.97
2022-09-21T16:27:01.937Z,54.63
2022-09-21T16:29:55.252Z,54.46
2022-09-21T16:32:42.705Z,52.25
2022-09-21T16:35:31.387Z,51.83
2022-09-21T16:37:59.033Z,51.11
2022-09-21T16:40:27.930Z,50.73
2022-09-21T16:42:56.355Z,50.43
2022-09-21T16:45:27.241Z,50.25
2022-09-21T16:47:54.104Z,50.24
2022-09-21T16:50:41.202Z,51.08
2022-09-21T16:53:42.289Z,51.23
2022-09-21T16:56:36.210Z,51.88
2022-09-21T16:59:28.250Z,51.60
2022-09-21T17:02:14.098Z,51.27
2022-09-21T17:04:41.195Z,51.27
2022-09-21T17:07:29.250Z,50.76
2022-09-21T17:10:31.257Z,50.92
2022-09-21T17:13:14.590Z,50.49
2022-09-21T17:15:47.198Z,50.83
2022-09-21T17:18:34.256Z,51.05
2022-09-21T17:21:16.447Z,50.88
2022-09-21T17:23:43.345Z,50.91
2022-09-21T17:26:17.736Z,51.04
2022-09-21T17:28:44.945Z,51.05
2022-09-21T17:31:38.375Z,51.86
2022-09-21T17:34:18.748Z,51.19
2022-09-21T17:36:45.547Z,51.42
2022-09-21T17:39:34.455Z,51.86
2022-09-21T17:42:36.265Z,51.53
2022-09-21T17:45:38.522Z,51.91
2022-09-21T17:48:07.870Z,52.26
2022-09-21T17:50:55.262Z,52.18
2022-09-21T17:53:56.276Z,51.73
2022-09-21T17:56:40.770Z,52.32
2022-09-21T17:59:43.254Z,52.47
2022-09-21T18:02:44.273Z,52.98
2022-09-21T18:05:29.718Z,53.46
2022-09-21T18:07:57.080Z,53.50
2022-09-21T18:10:27.420Z,53.75
2022-09-21T18:13:25.977Z,53.78
2022-09-21T18:15:56.734Z,54.28
2022-09-21T18:19:11.291Z,54.54
2022-09-21T18:22:32.285Z,54.66
2022-09-21T18:25:32.702Z,54.84
2022-09-21T18:28:11.314Z,55.22
2022-09-21T18:30:41.919Z,56.61
2022-09-21T18:33:21.404Z,57.34
2022-09-21T18:36:27.296Z,55.96
2022-09-21T18:40:11.352Z,55.69
2022-09-21T18:43:05.293Z,54.64
2022-09-21T18:46:06.193Z,55.12
2022-09-21T18:48:50.567Z,55.87
2022-09-21T18:52:00.306Z,56.25
2022-09-21T18:55:01.278Z,56.70
2022-09-21T18:58:02.281Z,56.60
2022-09-21T19:01:03.323Z,57.15
2022-09-21T19:04:04.350Z,59.46
2022-09-21T19:07:15.328Z,60.16
2022-09-21T19:10:39.303Z,60.36
2022-09-21T19:13:51.360Z,60.74
2022-09-21T19:16:35.441Z,60.86
2022-09-21T19:19:35.277Z,61.66
2022-09-21T19:22:48.344Z,62.07
2022-09-21T19:25:44.750Z,63.03
2022-09-21T19:28:21.698Z,62.56
2022-09-21T19:30:58.278Z,63.23
2022-09-21T19:33:49.561Z,63.05
2022-09-21T19:36:18.731Z,62.93
2022-09-21T19:39:06.470Z,63.13
2022-09-21T19:41:57.863Z,64.40
2022-09-21T19:44:34.985Z,64.89
2022-09-21T19:47:09.945Z,63.33
2022-09-21T19:49:54.537Z,63.48
2022-09-21T19:52:48.312Z,63.50
2022-09-21T19:56:08.420Z,63.14
2022-09-21T19:59:27.308Z,62.93
2022-09-21T20:02:12.726Z,62.96
2022-09-21T20:04:48.831Z,64.31
2022-09-21T20:07:25.289Z,63.87
2022-09-21T20:10:36.310Z,64.86
2022-09-21T20:13:47.708Z,65.48
2022-09-21T20:16:59.560Z,66.15
2022-09-21T20:20:15.337Z,65.95
2022-09-21T20:23:10.780Z,65.85
2022-09-21T20:26:10.347Z,65.50
2022-09-21T20:29:11.387Z,64.65
2022-09-21T20:31:53.276Z,64.53
2022-09-21T20:34:40.366Z,64.95
2022-09-21T20:37:21.134Z,64.67
2022-09-21T20:39:48.073Z,63.77
2022-09-21T20:42:24.375Z,64.70
2022-09-21T20:44:52.352Z,64.41
2022-09-21T20:47:23.775Z,64.27
2022-09-21T20:49:50.657Z,65.64
2022-09-21T20:52:17.607Z,65.51
2022-09-21T20:54:49.020Z,65.23
2022-09-21T20:57:17.663Z,64.67
2022-09-21T21:00:04.390Z,64.80
2022-09-21T21:03:08.436Z,65.22
2022-09-21T21:06:26.397Z,65.28
2022-09-21T21:09:06.966Z,65.91
2022-09-21T21:11:54.403Z,66.04
2022-09-21T21:14:35.145Z,66.93
2022-09-21T21:17:02.493Z,66.58
2022-09-21T21:19:29.392Z,67.53
2022-09-21T21:21:56.342Z,67.80
2022-09-21T21:24:41.560Z,67.73
2022-09-21T21:27:14.903Z,68.10
2022-09-21T21:29:42.922Z,68.58
2022-09-21T21:32:10.109Z,69.24
2022-09-21T21:34:38.396Z,69.13
2022-09-21T21:37:05.861Z,69.66
2022-09-21T21:39:33.799Z,70.93
2022-09-21T21:42:01.233Z,71.24
2022-09-21T21:44:28.190Z,69.96
2022-09-21T21:47:02.834Z,70.70
2022-09-21T21:49:42.211Z,70.71
2022-09-21T21:52:09.665Z,70.96
2022-09-21T21:54:56.394Z,71.84
2022-09-21T21:57:58.413Z,72.72
2022-09-21T22:00:59.473Z,74.36
2022-09-21T22:03:54.541Z,74.54
2022-09-21T22:06:29.846Z,74.29
2022-09-21T22:09:18.375Z,75.62
2022-09-21T22:12:19.426Z,76.86
2022-09-21T22:14:59.977Z,77.57
2022-09-21T22:17:47.402Z,77.96
2022-09-21T22:20:27.939Z,77.65
2022-09-21T22:22:54.801Z,78.04
2022-09-21T22:25:21.741Z,77.20
2022-09-21T22:27:49.029Z,76.18
2022-09-21T22:30:16.105Z,76.53
2022-09-21T22:32:43.084Z,77.01
2022-09-21T22:35:09.856Z,77.46
2022-09-21T22:37:36.786Z,77.81
2022-09-21T22:40:23.487Z,77.16
2022-09-21T22:43:07.260Z,78.45
2022-09-21T22:45:34.310Z,77.50
2022-09-21T22:48:01.324Z,78.68
2022-09-21T22:50:28.310Z,78.64
2022-09-21T22:52:55.142Z,78.97
2022-09-21T22:55:22.007Z,78.31
2022-09-21T22:58:09.437Z,78.50
2022-09-21T23:01:41.421Z,79.04
2022-09-21T23:04:42.432Z,80.12
2022-09-21T23:07:09.314Z,80.60
2022-09-21T23:09:36.197Z,79.82
2022-09-21T23:12:24.660Z,79.66
2022-09-21T23:15:25.443Z,79.57
2022-09-21T23:18:26.774Z,80.17
2022-09-21T23:21:10.930Z,80.83
2022-09-21T23:23:37.959Z,81.15
2022-09-21T23:26:07.903Z,80.94
2022-09-21T23:28:36.291Z,80.79
2022-09-21T23:31:05.241Z,82.23
2022-09-21T23:33:42.162Z,82.93
2022-09-21T23:36:11.297Z,82.26
2022-09-21T23:38:38.712Z,82.31
2022-09-21T23:41:08.990Z,82.02
2022-09-21T23:43:37.663Z,83.23
2022-09-21T23:46:26.498Z,83.45
2022-09-21T23:49:07.337Z,83.23
2022-09-21T23:51:35.114Z,83.90
2022-09-21T23:54:02.515Z,84.10
2022-09-21T23:56:30.088Z,84.31
2022-09-21T23:59:17.460Z,84.89
